sensor_id;sensor_type;location;lat;lon;timestamp;P1;durP1;ratioP1;P2;durP2;ratioP2
85257;SDS011;75669;48.038;10.158;2024-02-28T00:00:43;22.33;;;10.77;;
85257;SDS011;75669;48.038;10.158;2024-02-28T00:04:16;24.65;;;10.40;;
85257;SDS011;75669;48.038;10.158;2024-02-28T00:07:40;23.80;;;10.27;;
85257;SDS011;75669;48.038;10.158;2024-02-28T00:11:04;26.33;;;11.32;;
85257;SDS011;75669;48.038;10.158;2024-02-28T00:14:28;23.20;;;10.25;;
85257;SDS011;75669;48.038;10.158;2024-02-28T00:17:54;27.40;;;11.15;;
85257;SDS011;75669;48.038;10.158;2024-02-28T00:21:18;24.60;;;10.25;;
85257;SDS011;75669;48.038;10.158;2024-02-28T00:24:42;23.60;;;10.60;;
85257;SDS011;75669;48.038;10.158;2024-02-28T00:28:06;22.30;;;9.90;;
85257;SDS011;75669;48.038;10.158;2024-02-28T00:31:29;26.27;;;10.68;;
85257;SDS011;75669;48.038;10.158;2024-02-28T00:34:53;19.85;;;10.13;;
85257;SDS011;75669;48.038;10.158;2024-02-28T00:38:18;20.65;;;10.25;;
85257;SDS011;75669;48.038;10.158;2024-02-28T00:41:42;25.08;;;9.98;;
85257;SDS011;75669;48.038;10.158;2024-02-28T00:45:08;21.98;;;9.40;;
85257;SDS011;75669;48.038;10.158;2024-02-28T00:48:36;22.27;;;10.10;;
85257;SDS011;75669;48.038;10.158;2024-02-28T00:52:00;24.98;;;11.10;;
85257;SDS011;75669;48.038;10.158;2024-02-28T00:55:24;25.33;;;10.68;;
85257;SDS011;75669;48.038;10.158;2024-02-28T00:58:49;20.73;;;9.55;;
85257;SDS011;75669;48.038;10.158;2024-02-28T01:02:51;22.77;;;10.45;;
85257;SDS011;75669;48.038;10.158;2024-02-28T01:06:15;21.63;;;10.98;;
85257;SDS011;75669;48.038;10.158;2024-02-28T01:09:39;25.15;;;10.48;;
85257;SDS011;75669;48.038;10.158;2024-02-28T01:13:03;18.85;;;8.95;;
85257;SDS011;75669;48.038;10.158;2024-02-28T01:16:27;23.73;;;10.10;;
85257;SDS011;75669;48.038;10.158;2024-02-28T01:19:51;22.83;;;10.32;;
85257;SDS011;75669;48.038;10.158;2024-02-28T01:23:16;24.60;;;11.07;;
85257;SDS011;75669;48.038;10.158;2024-02-28T01:26:40;21.75;;;9.32;;
85257;SDS011;75669;48.038;10.158;2024-02-28T01:30:04;21.30;;;10.32;;
85257;SDS011;75669;48.038;10.158;2024-02-28T01:33:28;26.50;;;10.60;;
85257;SDS011;75669;48.038;10.158;2024-02-28T01:36:52;26.08;;;11.90;;
85257;SDS011;75669;48.038;10.158;2024-02-28T01:40:16;25.10;;;10.85;;
85257;SDS011;75669;48.038;10.158;2024-02-28T01:43:40;28.25;;;13.00;;
85257;SDS011;75669;48.038;10.158;2024-02-28T01:47:16;23.83;;;11.35;;
85257;SDS011;75669;48.038;10.158;2024-02-28T01:50:41;28.95;;;11.20;;
85257;SDS011;75669;48.038;10.158;2024-02-28T01:54:06;25.65;;;10.90;;
85257;SDS011;75669;48.038;10.158;2024-02-28T01:57:31;24.50;;;11.20;;
85257;SDS011;75669;48.038;10.158;2024-02-28T02:00:55;27.23;;;11.93;;
85257;SDS011;75669;48.038;10.158;2024-02-28T02:04:20;29.10;;;13.13;;
85257;SDS011;75669;48.038;10.158;2024-02-28T02:07:46;27.63;;;12.77;;
85257;SDS011;75669;48.038;10.158;2024-02-28T02:11:11;25.20;;;11.30;;
85257;SDS011;75669;48.038;10.158;2024-02-28T02:14:35;26.55;;;12.25;;
85257;SDS011;75669;48.038;10.158;2024-02-28T02:17:59;28.50;;;13.13;;
85257;SDS011;75669;48.038;10.158;2024-02-28T02:21:24;30.83;;;12.95;;
85257;SDS011;75669;48.038;10.158;2024-02-28T02:24:52;27.60;;;11.88;;
85257;SDS011;75669;48.038;10.158;2024-02-28T02:28:16;29.38;;;12.27;;
85257;SDS011;75669;48.038;10.158;2024-02-28T02:31:39;26.00;;;11.23;;
85257;SDS011;75669;48.038;10.158;2024-02-28T02:35:03;28.75;;;11.90;;
85257;SDS011;75669;48.038;10.158;2024-02-28T02:38:27;26.63;;;11.85;;
85257;SDS011;75669;48.038;10.158;2024-02-28T02:41:51;26.38;;;11.35;;
85257;SDS011;75669;48.038;10.158;2024-02-28T02:45:16;27.00;;;12.43;;
85257;SDS011;75669;48.038;10.158;2024-02-28T02:48:39;28.30;;;12.45;;
85257;SDS011;75669;48.038;10.158;2024-02-28T02:52:03;30.52;;;12.73;;
85257;SDS011;75669;48.038;10.158;2024-02-28T02:55:28;28.92;;;12.43;;
85257;SDS011;75669;48.038;10.158;2024-02-28T02:58:52;30.10;;;12.60;;
85257;SDS011;75669;48.038;10.158;2024-02-28T03:02:16;30.38;;;12.88;;
85257;SDS011;75669;48.038;10.158;2024-02-28T03:05:40;27.15;;;12.50;;
85257;SDS011;75669;48.038;10.158;2024-02-28T03:09:04;30.27;;;12.52;;
85257;SDS011;75669;48.038;10.158;2024-02-28T03:12:28;28.70;;;11.02;;
85257;SDS011;75669;48.038;10.158;2024-02-28T03:15:53;29.08;;;13.35;;
85257;SDS011;75669;48.038;10.158;2024-02-28T03:19:17;28.42;;;13.85;;
85257;SDS011;75669;48.038;10.158;2024-02-28T03:22:40;29.67;;;12.50;;
85257;SDS011;75669;48.038;10.158;2024-02-28T03:26:04;32.17;;;11.50;;
85257;SDS011;75669;48.038;10.158;2024-02-28T03:29:28;28.67;;;11.35;;
85257;SDS011;75669;48.038;10.158;2024-02-28T03:32:52;28.38;;;12.70;;
85257;SDS011;75669;48.038;10.158;2024-02-28T03:36:16;29.38;;;13.23;;
85257;SDS011;75669;48.038;10.158;2024-02-28T03:39:40;31.23;;;13.02;;
85257;SDS011;75669;48.038;10.158;2024-02-28T03:43:04;30.00;;;12.90;;
85257;SDS011;75669;48.038;10.158;2024-02-28T03:46:28;36.92;;;15.18;;
85257;SDS011;75669;48.038;10.158;2024-02-28T03:49:52;31.85;;;12.85;;
85257;SDS011;75669;48.038;10.158;2024-02-28T03:53:16;26.48;;;12.48;;
85257;SDS011;75669;48.038;10.158;2024-02-28T03:56:40;30.25;;;12.35;;
85257;SDS011;75669;48.038;10.158;2024-02-28T04:00:04;28.42;;;13.18;;
85257;SDS011;75669;48.038;10.158;2024-02-28T04:03:28;26.20;;;11.80;;
85257;SDS011;75669;48.038;10.158;2024-02-28T04:06:52;33.13;;;13.27;;
85257;SDS011;75669;48.038;10.158;2024-02-28T04:10:16;29.30;;;13.43;;
85257;SDS011;75669;48.038;10.158;2024-02-28T04:13:40;27.90;;;11.50;;
85257;SDS011;75669;48.038;10.158;2024-02-28T04:17:04;29.75;;;11.35;;
85257;SDS011;75669;48.038;10.158;2024-02-28T04:20:28;31.30;;;12.23;;
85257;SDS011;75669;48.038;10.158;2024-02-28T04:23:52;35.75;;;14.40;;
85257;SDS011;75669;48.038;10.158;2024-02-28T04:27:16;29.50;;;12.23;;
85257;SDS011;75669;48.038;10.158;2024-02-28T04:30:40;29.10;;;13.77;;
85257;SDS011;75669;48.038;10.158;2024-02-28T04:34:03;28.90;;;10.23;;
85257;SDS011;75669;48.038;10.158;2024-02-28T04:37:28;29.98;;;12.60;;
85257;SDS011;75669;48.038;10.158;2024-02-28T04:40:52;32.45;;;14.25;;
85257;SDS011;75669;48.038;10.158;2024-02-28T04:44:16;32.75;;;12.43;;
85257;SDS011;75669;48.038;10.158;2024-02-28T04:47:40;32.63;;;12.77;;
85257;SDS011;75669;48.038;10.158;2024-02-28T04:51:04;28.90;;;11.90;;
85257;SDS011;75669;48.038;10.158;2024-02-28T04:54:27;32.58;;;12.90;;
85257;SDS011;75669;48.038;10.158;2024-02-28T04:57:51;32.95;;;14.40;;
85257;SDS011;75669;48.038;10.158;2024-02-28T05:01:16;29.27;;;13.35;;
85257;SDS011;75669;48.038;10.158;2024-02-28T05:04:40;29.33;;;13.13;;
85257;SDS011;75669;48.038;10.158;2024-02-28T05:08:04;33.28;;;12.35;;
85257;SDS011;75669;48.038;10.158;2024-02-28T05:11:28;28.02;;;11.73;;
85257;SDS011;75669;48.038;10.158;2024-02-28T05:14:51;34.42;;;13.90;;
85257;SDS011;75669;48.038;10.158;2024-02-28T05:18:16;35.72;;;14.00;;
85257;SDS011;75669;48.038;10.158;2024-02-28T05:21:43;35.95;;;14.18;;
85257;SDS011;75669;48.038;10.158;2024-02-28T05:25:07;33.42;;;13.55;;
85257;SDS011;75669;48.038;10.158;2024-02-28T05:28:35;33.83;;;12.63;;
85257;SDS011;75669;48.038;10.158;2024-02-28T05:31:59;28.73;;;11.57;;
85257;SDS011;75669;48.038;10.158;2024-02-28T05:35:23;32.22;;;13.07;;
85257;SDS011;75669;48.038;10.158;2024-02-28T05:38:47;33.97;;;14.80;;
85257;SDS011;75669;48.038;10.158;2024-02-28T05:42:11;30.77;;;13.52;;
85257;SDS011;75669;48.038;10.158;2024-02-28T05:45:35;35.78;;;15.10;;
85257;SDS011;75669;48.038;10.158;2024-02-28T05:48:59;32.75;;;13.80;;
85257;SDS011;75669;48.038;10.158;2024-02-28T05:52:24;31.08;;;13.05;;
85257;SDS011;75669;48.038;10.158;2024-02-28T05:55:51;33.35;;;14.43;;
85257;SDS011;75669;48.038;10.158;2024-02-28T05:59:15;33.33;;;13.13;;
85257;SDS011;75669;48.038;10.158;2024-02-28T06:02:39;33.05;;;13.80;;
85257;SDS011;75669;48.038;10.158;2024-02-28T06:06:03;37.28;;;16.08;;
85257;SDS011;75669;48.038;10.158;2024-02-28T06:09:27;35.72;;;13.18;;
85257;SDS011;75669;48.038;10.158;2024-02-28T06:12:51;36.58;;;13.57;;
85257;SDS011;75669;48.038;10.158;2024-02-28T06:16:16;36.15;;;14.07;;
85257;SDS011;75669;48.038;10.158;2024-02-28T06:19:40;40.67;;;16.40;;
85257;SDS011;75669;48.038;10.158;2024-02-28T06:23:04;32.28;;;12.75;;
85257;SDS011;75669;48.038;10.158;2024-02-28T06:26:29;33.90;;;13.23;;
85257;SDS011;75669;48.038;10.158;2024-02-28T06:29:53;35.60;;;15.30;;
85257;SDS011;75669;48.038;10.158;2024-02-28T06:33:17;39.13;;;13.60;;
85257;SDS011;75669;48.038;10.158;2024-02-28T06:36:41;44.10;;;14.52;;
85257;SDS011;75669;48.038;10.158;2024-02-28T06:40:05;43.22;;;15.98;;
85257;SDS011;75669;48.038;10.158;2024-02-28T06:43:32;35.45;;;12.00;;
85257;SDS011;75669;48.038;10.158;2024-02-28T06:46:56;40.72;;;16.23;;
85257;SDS011;75669;48.038;10.158;2024-02-28T06:50:20;45.58;;;15.95;;
85257;SDS011;75669;48.038;10.158;2024-02-28T06:53:44;31.08;;;13.35;;
85257;SDS011;75669;48.038;10.158;2024-02-28T06:57:08;39.90;;;15.13;;
85257;SDS011;75669;48.038;10.158;2024-02-28T07:00:31;39.50;;;15.85;;
85257;SDS011;75669;48.038;10.158;2024-02-28T07:03:55;45.15;;;15.48;;
85257;SDS011;75669;48.038;10.158;2024-02-28T07:07:19;41.42;;;15.15;;
85257;SDS011;75669;48.038;10.158;2024-02-28T07:10:43;40.30;;;13.93;;
85257;SDS011;75669;48.038;10.158;2024-02-28T07:14:07;47.85;;;16.38;;
85257;SDS011;75669;48.038;10.158;2024-02-28T07:17:31;36.17;;;15.25;;
85257;SDS011;75669;48.038;10.158;2024-02-28T07:20:55;48.05;;;15.77;;
85257;SDS011;75669;48.038;10.158;2024-02-28T07:24:19;44.90;;;15.25;;
85257;SDS011;75669;48.038;10.158;2024-02-28T07:27:43;46.35;;;16.17;;
85257;SDS011;75669;48.038;10.158;2024-02-28T07:31:13;39.70;;;14.48;;
85257;SDS011;75669;48.038;10.158;2024-02-28T07:34:38;43.47;;;16.20;;
85257;SDS011;75669;48.038;10.158;2024-02-28T07:38:09;34.28;;;13.05;;
85257;SDS011;75669;48.038;10.158;2024-02-28T07:41:37;32.65;;;12.27;;
85257;SDS011;75669;48.038;10.158;2024-02-28T07:45:01;53.17;;;15.57;;
85257;SDS011;75669;48.038;10.158;2024-02-28T07:48:25;45.72;;;16.42;;
85257;SDS011;75669;48.038;10.158;2024-02-28T07:51:50;41.75;;;14.48;;
85257;SDS011;75669;48.038;10.158;2024-02-28T07:55:13;48.08;;;16.45;;
85257;SDS011;75669;48.038;10.158;2024-02-28T07:58:44;48.28;;;17.13;;
85257;SDS011;75669;48.038;10.158;2024-02-28T08:02:09;41.08;;;13.77;;
85257;SDS011;75669;48.038;10.158;2024-02-28T08:05:34;35.70;;;12.20;;
85257;SDS011;75669;48.038;10.158;2024-02-28T08:08:58;46.38;;;16.85;;
85257;SDS011;75669;48.038;10.158;2024-02-28T08:12:22;38.25;;;12.75;;
85257;SDS011;75669;48.038;10.158;2024-02-28T08:15:46;42.47;;;14.73;;
85257;SDS011;75669;48.038;10.158;2024-02-28T08:19:10;39.92;;;14.43;;
85257;SDS011;75669;48.038;10.158;2024-02-28T08:22:34;41.05;;;14.13;;
85257;SDS011;75669;48.038;10.158;2024-02-28T08:25:58;38.47;;;16.20;;
85257;SDS011;75669;48.038;10.158;2024-02-28T08:29:21;45.50;;;16.42;;
85257;SDS011;75669;48.038;10.158;2024-02-28T08:32:45;43.42;;;15.02;;
85257;SDS011;75669;48.038;10.158;2024-02-28T08:36:09;47.70;;;16.17;;
85257;SDS011;75669;48.038;10.158;2024-02-28T08:39:36;46.38;;;16.58;;
85257;SDS011;75669;48.038;10.158;2024-02-28T08:43:00;34.58;;;13.38;;
85257;SDS011;75669;48.038;10.158;2024-02-28T08:46:24;42.13;;;15.07;;
85257;SDS011;75669;48.038;10.158;2024-02-28T08:49:48;43.80;;;14.93;;
85257;SDS011;75669;48.038;10.158;2024-02-28T08:53:12;45.85;;;18.17;;
85257;SDS011;75669;48.038;10.158;2024-02-28T08:56:36;44.63;;;14.85;;
85257;SDS011;75669;48.038;10.158;2024-02-28T09:00:00;41.90;;;17.17;;
85257;SDS011;75669;48.038;10.158;2024-02-28T09:03:24;45.10;;;15.80;;
85257;SDS011;75669;48.038;10.158;2024-02-28T09:06:48;44.80;;;17.17;;
85257;SDS011;75669;48.038;10.158;2024-02-28T09:10:16;42.20;;;15.65;;
85257;SDS011;75669;48.038;10.158;2024-02-28T09:13:40;42.83;;;14.77;;
85257;SDS011;75669;48.038;10.158;2024-02-28T09:17:04;41.47;;;14.98;;
85257;SDS011;75669;48.038;10.158;2024-02-28T09:20:28;39.55;;;15.30;;
85257;SDS011;75669;48.038;10.158;2024-02-28T09:23:52;42.70;;;16.17;;
85257;SDS011;75669;48.038;10.158;2024-02-28T09:27:15;40.42;;;15.38;;
85257;SDS011;75669;48.038;10.158;2024-02-28T09:30:41;42.00;;;14.32;;
85257;SDS011;75669;48.038;10.158;2024-02-28T09:34:05;39.08;;;15.27;;
85257;SDS011;75669;48.038;10.158;2024-02-28T09:37:29;44.83;;;15.15;;
85257;SDS011;75669;48.038;10.158;2024-02-28T09:40:54;39.80;;;15.25;;
85257;SDS011;75669;48.038;10.158;2024-02-28T09:44:18;34.20;;;13.40;;
85257;SDS011;75669;48.038;10.158;2024-02-28T09:47:44;42.35;;;15.75;;
85257;SDS011;75669;48.038;10.158;2024-02-28T09:51:10;39.97;;;13.85;;
85257;SDS011;75669;48.038;10.158;2024-02-28T09:54:34;41.13;;;15.93;;
85257;SDS011;75669;48.038;10.158;2024-02-28T09:57:58;35.33;;;14.80;;
85257;SDS011;75669;48.038;10.158;2024-02-28T10:01:24;36.42;;;13.55;;
85257;SDS011;75669;48.038;10.158;2024-02-28T10:04:49;28.55;;;11.85;;
85257;SDS011;75669;48.038;10.158;2024-02-28T10:08:13;40.85;;;15.52;;
85257;SDS011;75669;48.038;10.158;2024-02-28T10:11:37;34.80;;;13.55;;
85257;SDS011;75669;48.038;10.158;2024-02-28T10:15:05;40.83;;;14.43;;
85257;SDS011;75669;48.038;10.158;2024-02-28T10:18:31;33.83;;;13.60;;
85257;SDS011;75669;48.038;10.158;2024-02-28T10:21:55;32.50;;;13.18;;
85257;SDS011;75669;48.038;10.158;2024-02-28T10:25:19;37.60;;;14.18;;
85257;SDS011;75669;48.038;10.158;2024-02-28T10:28:43;35.45;;;13.88;;
85257;SDS011;75669;48.038;10.158;2024-02-28T10:32:09;34.03;;;11.88;;
85257;SDS011;75669;48.038;10.158;2024-02-28T10:35:37;29.80;;;11.85;;
85257;SDS011;75669;48.038;10.158;2024-02-28T10:39:02;39.22;;;14.93;;
85257;SDS011;75669;48.038;10.158;2024-02-28T10:42:29;39.88;;;14.63;;
85257;SDS011;75669;48.038;10.158;2024-02-28T10:45:55;36.30;;;13.38;;
85257;SDS011;75669;48.038;10.158;2024-02-28T10:49:20;34.67;;;13.82;;
85257;SDS011;75669;48.038;10.158;2024-02-28T10:52:45;36.30;;;13.15;;
85257;SDS011;75669;48.038;10.158;2024-02-28T10:56:11;40.47;;;14.27;;
85257;SDS011;75669;48.038;10.158;2024-02-28T10:59:40;32.88;;;12.75;;
85257;SDS011;75669;48.038;10.158;2024-02-28T11:03:06;31.98;;;10.38;;
85257;SDS011;75669;48.038;10.158;2024-02-28T11:06:30;33.95;;;11.60;;
85257;SDS011;75669;48.038;10.158;2024-02-28T11:09:55;37.50;;;14.05;;
85257;SDS011;75669;48.038;10.158;2024-02-28T11:13:23;36.90;;;13.02;;
85257;SDS011;75669;48.038;10.158;2024-02-28T11:16:59;38.28;;;12.82;;
85257;SDS011;75669;48.038;10.158;2024-02-28T11:20:35;28.23;;;11.00;;
85257;SDS011;75669;48.038;10.158;2024-02-28T11:24:00;33.60;;;12.90;;
85257;SDS011;75669;48.038;10.158;2024-02-28T11:27:24;42.25;;;15.32;;
85257;SDS011;75669;48.038;10.158;2024-02-28T11:30:49;36.78;;;12.63;;
85257;SDS011;75669;48.038;10.158;2024-02-28T11:34:13;36.53;;;13.95;;
85257;SDS011;75669;48.038;10.158;2024-02-28T11:37:38;35.80;;;13.95;;
85257;SDS011;75669;48.038;10.158;2024-02-28T11:41:03;28.60;;;11.57;;
85257;SDS011;75669;48.038;10.158;2024-02-28T11:44:41;23.40;;;9.50;;
85257;SDS011;75669;48.038;10.158;2024-02-28T11:48:06;31.33;;;11.48;;
85257;SDS011;75669;48.038;10.158;2024-02-28T11:51:31;27.33;;;9.75;;
85257;SDS011;75669;48.038;10.158;2024-02-28T11:54:58;29.65;;;11.02;;
85257;SDS011;75669;48.038;10.158;2024-02-28T11:58:22;31.45;;;12.02;;
85257;SDS011;75669;48.038;10.158;2024-02-28T12:01:46;34.95;;;13.25;;
85257;SDS011;75669;48.038;10.158;2024-02-28T12:05:10;38.92;;;13.18;;
85257;SDS011;75669;48.038;10.158;2024-02-28T12:08:34;25.70;;;9.70;;
85257;SDS011;75669;48.038;10.158;2024-02-28T12:12:00;23.27;;;9.65;;
85257;SDS011;75669;48.038;10.158;2024-02-28T12:15:24;32.67;;;12.75;;
85257;SDS011;75669;48.038;10.158;2024-02-28T12:18:52;34.25;;;13.13;;
85257;SDS011;75669;48.038;10.158;2024-02-28T12:22:16;33.42;;;13.00;;
85257;SDS011;75669;48.038;10.158;2024-02-28T12:25:40;30.33;;;11.80;;
85257;SDS011;75669;48.038;10.158;2024-02-28T12:29:06;28.08;;;12.32;;
85257;SDS011;75669;48.038;10.158;2024-02-28T12:32:31;36.53;;;13.85;;
85257;SDS011;75669;48.038;10.158;2024-02-28T12:35:58;33.47;;;13.57;;
85257;SDS011;75669;48.038;10.158;2024-02-28T12:39:22;29.30;;;11.98;;
85257;SDS011;75669;48.038;10.158;2024-02-28T12:42:46;31.77;;;12.32;;
85257;SDS011;75669;48.038;10.158;2024-02-28T12:46:10;35.28;;;12.43;;
85257;SDS011;75669;48.038;10.158;2024-02-28T12:49:34;32.00;;;11.93;;
85257;SDS011;75669;48.038;10.158;2024-02-28T12:53:00;27.40;;;11.23;;
85257;SDS011;75669;48.038;10.158;2024-02-28T12:56:24;21.55;;;8.07;;
85257;SDS011;75669;48.038;10.158;2024-02-28T12:59:48;15.35;;;6.28;;
85257;SDS011;75669;48.038;10.158;2024-02-28T13:03:11;28.45;;;10.02;;
85257;SDS011;75669;48.038;10.158;2024-02-28T13:06:37;28.50;;;11.55;;
85257;SDS011;75669;48.038;10.158;2024-02-28T13:10:01;25.10;;;8.38;;
85257;SDS011;75669;48.038;10.158;2024-02-28T13:13:26;26.58;;;10.77;;
85257;SDS011;75669;48.038;10.158;2024-02-28T13:16:49;25.20;;;9.98;;
85257;SDS011;75669;48.038;10.158;2024-02-28T13:20:14;24.90;;;9.63;;
85257;SDS011;75669;48.038;10.158;2024-02-28T13:23:38;24.48;;;10.93;;
85257;SDS011;75669;48.038;10.158;2024-02-28T13:27:02;27.75;;;11.80;;
85257;SDS011;75669;48.038;10.158;2024-02-28T13:30:29;24.08;;;10.45;;
85257;SDS011;75669;48.038;10.158;2024-02-28T13:33:54;26.80;;;10.85;;
85257;SDS011;75669;48.038;10.158;2024-02-28T13:37:18;25.58;;;11.10;;
85257;SDS011;75669;48.038;10.158;2024-02-28T13:40:43;22.85;;;9.23;;
85257;SDS011;75669;48.038;10.158;2024-02-28T13:44:07;25.95;;;12.43;;
85257;SDS011;75669;48.038;10.158;2024-02-28T13:47:35;25.83;;;8.98;;
85257;SDS011;75669;48.038;10.158;2024-02-28T13:50:59;22.60;;;10.55;;
85257;SDS011;75669;48.038;10.158;2024-02-28T13:54:23;23.35;;;9.23;;
85257;SDS011;75669;48.038;10.158;2024-02-28T13:57:47;26.92;;;11.48;;
85257;SDS011;75669;48.038;10.158;2024-02-28T14:01:12;26.05;;;10.82;;
85257;SDS011;75669;48.038;10.158;2024-02-28T14:04:37;23.98;;;10.15;;
85257;SDS011;75669;48.038;10.158;2024-02-28T14:08:00;22.45;;;8.98;;
85257;SDS011;75669;48.038;10.158;2024-02-28T14:11:24;23.05;;;8.57;;
85257;SDS011;75669;48.038;10.158;2024-02-28T14:14:48;23.13;;;9.95;;
85257;SDS011;75669;48.038;10.158;2024-02-28T14:18:12;21.95;;;10.00;;
85257;SDS011;75669;48.038;10.158;2024-02-28T14:21:36;19.23;;;5.70;;
85257;SDS011;75669;48.038;10.158;2024-02-28T14:25:00;27.08;;;10.35;;
85257;SDS011;75669;48.038;10.158;2024-02-28T14:28:24;17.65;;;8.27;;
85257;SDS011;75669;48.038;10.158;2024-02-28T14:31:48;20.58;;;8.75;;
85257;SDS011;75669;48.038;10.158;2024-02-28T14:35:13;19.77;;;7.97;;
85257;SDS011;75669;48.038;10.158;2024-02-28T14:38:38;23.27;;;9.00;;
85257;SDS011;75669;48.038;10.158;2024-02-28T14:42:02;19.83;;;8.75;;
85257;SDS011;75669;48.038;10.158;2024-02-28T14:45:25;26.38;;;10.20;;
85257;SDS011;75669;48.038;10.158;2024-02-28T14:48:49;22.77;;;9.98;;
85257;SDS011;75669;48.038;10.158;2024-02-28T14:52:13;20.33;;;9.48;;
85257;SDS011;75669;48.038;10.158;2024-02-28T14:55:37;24.52;;;11.00;;
85257;SDS011;75669;48.038;10.158;2024-02-28T14:59:01;23.13;;;9.27;;
85257;SDS011;75669;48.038;10.158;2024-02-28T15:02:25;19.73;;;8.95;;
85257;SDS011;75669;48.038;10.158;2024-02-28T15:05:49;24.17;;;9.40;;
85257;SDS011;75669;48.038;10.158;2024-02-28T15:09:14;22.88;;;8.90;;
85257;SDS011;75669;48.038;10.158;2024-02-28T15:12:38;25.23;;;10.68;;
85257;SDS011;75669;48.038;10.158;2024-02-28T15:16:03;19.98;;;7.53;;
85257;SDS011;75669;48.038;10.158;2024-02-28T15:19:27;24.85;;;10.20;;
85257;SDS011;75669;48.038;10.158;2024-02-28T15:22:51;26.42;;;9.93;;
85257;SDS011;75669;48.038;10.158;2024-02-28T15:26:15;23.38;;;9.18;;
85257;SDS011;75669;48.038;10.158;2024-02-28T15:29:38;22.17;;;9.60;;
85257;SDS011;75669;48.038;10.158;2024-02-28T15:33:02;23.15;;;9.52;;
85257;SDS011;75669;48.038;10.158;2024-02-28T15:36:26;32.08;;;12.40;;
85257;SDS011;75669;48.038;10.158;2024-02-28T15:39:50;26.52;;;10.15;;
85257;SDS011;75669;48.038;10.158;2024-02-28T15:43:14;24.35;;;10.30;;
85257;SDS011;75669;48.038;10.158;2024-02-28T15:46:40;23.83;;;10.15;;
85257;SDS011;75669;48.038;10.158;2024-02-28T15:50:06;20.98;;;9.02;;
85257;SDS011;75669;48.038;10.158;2024-02-28T15:53:31;24.65;;;10.40;;
85257;SDS011;75669;48.038;10.158;2024-02-28T15:56:55;25.48;;;10.52;;
85257;SDS011;75669;48.038;10.158;2024-02-28T16:00:20;27.40;;;11.23;;
85257;SDS011;75669;48.038;10.158;2024-02-28T16:03:44;22.70;;;9.55;;
85257;SDS011;75669;48.038;10.158;2024-02-28T16:07:08;21.58;;;8.63;;
85257;SDS011;75669;48.038;10.158;2024-02-28T16:10:33;22.17;;;8.88;;
85257;SDS011;75669;48.038;10.158;2024-02-28T16:13:58;24.75;;;10.00;;
85257;SDS011;75669;48.038;10.158;2024-02-28T16:17:22;25.80;;;11.05;;
85257;SDS011;75669;48.038;10.158;2024-02-28T16:20:46;21.35;;;7.13;;
85257;SDS011;75669;48.038;10.158;2024-02-28T16:24:14;20.75;;;8.27;;
85257;SDS011;75669;48.038;10.158;2024-02-28T16:27:39;47.17;;;16.45;;
85257;SDS011;75669;48.038;10.158;2024-02-28T16:31:02;31.90;;;11.75;;
85257;SDS011;75669;48.038;10.158;2024-02-28T16:34:26;24.77;;;10.75;;
85257;SDS011;75669;48.038;10.158;2024-02-28T16:37:50;23.42;;;9.55;;
85257;SDS011;75669;48.038;10.158;2024-02-28T16:41:18;24.33;;;9.77;;
85257;SDS011;75669;48.038;10.158;2024-02-28T16:44:42;21.15;;;9.00;;
85257;SDS011;75669;48.038;10.158;2024-02-28T16:48:06;23.08;;;9.45;;
85257;SDS011;75669;48.038;10.158;2024-02-28T16:51:30;23.27;;;9.07;;
85257;SDS011;75669;48.038;10.158;2024-02-28T16:54:54;23.33;;;10.20;;
85257;SDS011;75669;48.038;10.158;2024-02-28T16:58:18;22.95;;;10.20;;
85257;SDS011;75669;48.038;10.158;2024-02-28T17:01:42;23.40;;;8.55;;
85257;SDS011;75669;48.038;10.158;2024-02-28T17:05:05;23.20;;;9.25;;
85257;SDS011;75669;48.038;10.158;2024-02-28T17:08:30;25.90;;;10.30;;
85257;SDS011;75669;48.038;10.158;2024-02-28T17:11:54;24.48;;;11.55;;
85257;SDS011;75669;48.038;10.158;2024-02-28T17:15:18;25.25;;;10.43;;
85257;SDS011;75669;48.038;10.158;2024-02-28T17:18:42;23.70;;;9.38;;
85257;SDS011;75669;48.038;10.158;2024-02-28T17:22:06;22.27;;;10.10;;
85257;SDS011;75669;48.038;10.158;2024-02-28T17:25:30;29.02;;;13.43;;
85257;SDS011;75669;48.038;10.158;2024-02-28T17:28:54;26.67;;;11.73;;
85257;SDS011;75669;48.038;10.158;2024-02-28T17:32:17;24.23;;;11.30;;
85257;SDS011;75669;48.038;10.158;2024-02-28T17:35:41;23.60;;;10.05;;
85257;SDS011;75669;48.038;10.158;2024-02-28T17:39:06;20.75;;;9.10;;
85257;SDS011;75669;48.038;10.158;2024-02-28T17:42:30;23.85;;;9.05;;
85257;SDS011;75669;48.038;10.158;2024-02-28T17:45:54;22.83;;;8.13;;
85257;SDS011;75669;48.038;10.158;2024-02-28T17:49:18;25.13;;;8.95;;
85257;SDS011;75669;48.038;10.158;2024-02-28T17:52:42;24.70;;;8.77;;
85257;SDS011;75669;48.038;10.158;2024-02-28T17:56:06;25.40;;;10.57;;
85257;SDS011;75669;48.038;10.158;2024-02-28T17:59:30;28.88;;;11.02;;
85257;SDS011;75669;48.038;10.158;2024-02-28T18:02:56;29.65;;;14.02;;
85257;SDS011;75669;48.038;10.158;2024-02-28T18:06:20;23.45;;;10.10;;
85257;SDS011;75669;48.038;10.158;2024-02-28T18:09:43;26.98;;;10.52;;
85257;SDS011;75669;48.038;10.158;2024-02-28T18:13:09;27.42;;;12.35;;
85257;SDS011;75669;48.038;10.158;2024-02-28T18:16:34;26.58;;;10.88;;
85257;SDS011;75669;48.038;10.158;2024-02-28T18:19:59;28.85;;;11.85;;
85257;SDS011;75669;48.038;10.158;2024-02-28T18:23:24;32.90;;;10.98;;
85257;SDS011;75669;48.038;10.158;2024-02-28T18:26:48;31.63;;;11.07;;
85257;SDS011;75669;48.038;10.158;2024-02-28T18:30:12;27.95;;;9.35;;
85257;SDS011;75669;48.038;10.158;2024-02-28T18:33:36;28.65;;;12.40;;
85257;SDS011;75669;48.038;10.158;2024-02-28T18:37:00;33.85;;;12.35;;
85257;SDS011;75669;48.038;10.158;2024-02-28T18:40:24;30.67;;;13.80;;
85257;SDS011;75669;48.038;10.158;2024-02-28T18:43:48;33.65;;;12.02;;
85257;SDS011;75669;48.038;10.158;2024-02-28T18:47:12;30.20;;;11.00;;
85257;SDS011;75669;48.038;10.158;2024-02-28T18:50:36;28.98;;;10.90;;
85257;SDS011;75669;48.038;10.158;2024-02-28T18:54:00;31.77;;;11.45;;
85257;SDS011;75669;48.038;10.158;2024-02-28T18:57:24;29.13;;;12.35;;
85257;SDS011;75669;48.038;10.158;2024-02-28T19:00:48;28.60;;;10.75;;
85257;SDS011;75669;48.038;10.158;2024-02-28T19:04:14;32.50;;;13.15;;
85257;SDS011;75669;48.038;10.158;2024-02-28T19:07:39;21.85;;;8.48;;
85257;SDS011;75669;48.038;10.158;2024-02-28T19:11:03;32.25;;;13.25;;
85257;SDS011;75669;48.038;10.158;2024-02-28T19:14:29;28.08;;;11.57;;
85257;SDS011;75669;48.038;10.158;2024-02-28T19:17:53;32.65;;;14.15;;
85257;SDS011;75669;48.038;10.158;2024-02-28T19:21:16;31.55;;;12.60;;
85257;SDS011;75669;48.038;10.158;2024-02-28T19:24:46;29.02;;;10.75;;
85257;SDS011;75669;48.038;10.158;2024-02-28T19:28:10;28.55;;;12.15;;
85257;SDS011;75669;48.038;10.158;2024-02-28T19:31:36;33.05;;;12.68;;
85257;SDS011;75669;48.038;10.158;2024-02-28T19:35:03;31.52;;;14.13;;
85257;SDS011;75669;48.038;10.158;2024-02-28T19:38:27;37.50;;;14.50;;
85257;SDS011;75669;48.038;10.158;2024-02-28T19:41:50;33.28;;;12.48;;